This is the latest recevied weather packets stored in our database for station/object W4TBD-13. If no packets are shown the sender has not sent any weather packets the latest 10 day(s).
| Time | Temp. | Humidity | Pressure | Rain* | Wind** | Luminosity | Snow |
|---|---|---|---|---|---|---|---|
| 1777986305 | 18.89° C | 65% | 1005.3 hPa | 0 mm | - | 383 W/m² | - |
| 1777984504 | 17.22° C | 72% | 1005.3 hPa | 0 mm | - | 248 W/m² | - |
| 1777984204 | 17.22° C | 73% | 1005.3 hPa | 0 mm | - | 220 W/m² | - |
| 1777981204 | 15° C | 80% | 1004.9 hPa | 0 mm | - | 25 W/m² | - |
| 1777980605 | 14.44° C | 81% | 1004.9 hPa | 0 mm | - | 10 W/m² | - |
| 1777979405 | 13.89° C | 83% | 1004.7 hPa | 0 mm | - | 15 W/m² | - |
| 1777978804 | 13.89° C | 83% | 1004.9 hPa | 0 mm | - | 12 W/m² | - |
| 1777977305 | 13.33° C | 83% | 1004.4 hPa | 0 mm | - | 5 W/m² | - |
| 1777975504 | 13.89° C | 82% | 1004.3 hPa | 0 mm | - | 0 W/m² | - |
| 1777973404 | 14.44° C | 79% | 1004.3 hPa | 0 mm | - | 0 W/m² | - |
| 1777968304 | 15.56° C | 73% | 1004 hPa | 0 mm | - | 0 W/m² | - |
| 1777962903 | 16.67° C | 66% | 1003.6 hPa | 0 mm | - | 0 W/m² | - |
| 1777956604 | 18.33° C | 56% | 1003.3 hPa | 0 mm | - | 0 W/m² | - |
| 1777952404 | 17.78° C | 58% | 1003 hPa | 0 mm | - | 0 W/m² | - |
| 1777951803 | 18.33° C | 58% | 1003.1 hPa | 0 mm | - | 0 W/m² | - |
| 1777950304 | 18.89° C | 54% | 1003.2 hPa | 0 mm | - | 0 W/m² | - |
| 1777949404 | 18.89° C | 55% | 1003 hPa | 0 mm | - | 0 W/m² | - |
| 1777949104 | 18.89° C | 56% | 1003 hPa | 0 mm | - | 0 W/m² | - |
| 1777948504 | 18.89° C | 54% | 1003.1 hPa | 0 mm | - | 0 W/m² | - |
| 1777948205 | 18.89° C | 54% | 1002.9 hPa | 0 mm | - | 0 W/m² | - |
| 1777938306 | 22.22° C | 44% | 1002.3 hPa | 0 mm | - | 0 W/m² | - |
| 1777938007 | 22.78° C | 43% | 1002.3 hPa | 0 mm | - | 0 W/m² | - |
| 1777932006 | 24.44° C | 35% | 1002 hPa | 0 mm | - | 0 W/m² | - |
| 1777931706 | 24.44° C | 35% | 1002.1 hPa | 0 mm | - | 0 W/m² | - |
| 1777931406 | 24.44° C | 37% | 1002 hPa | 0 mm | - | 0 W/m² | - |
* Rain latest hour (hover to see other rain measurements)
** Current wind speed in m/s (hover to see current wind gust speed)